Time;durP1;ratioP1;P1;durP2;ratioP2;P2;SDS_P1;SDS_P2;PMS_P1;PMS_P2;Temp;Humidity;BMP_temperature;BMP_pressure;BME280_temperature;BME280_humidity;BME280_pressure;Samples;Min_cycle;Max_cycle;Signal;HPM_P1;HPM_P2
2023/04/04 00:01:59;;;;;;;6.53;2.00;;;7.60;50.10;;;;;;5034040;28;20042;-62
2023/04/04 00:04:26;;;;;;;6.78;2.47;;;7.60;50.10;;;;;;5029325;28;20048;-62
2023/04/04 00:06:53;;;;;;;5.75;2.17;;;7.60;50.00;;;;;;5034311;28;20052;-62
2023/04/04 00:09:19;;;;;;;6.80;2.17;;;7.60;50.00;;;;;;5030897;28;20341;-62
2023/04/04 00:11:45;;;;;;;5.28;2.20;;;7.60;50.00;;;;;;5034171;28;20033;-62
2023/04/04 00:14:11;;;;;;;6.65;2.38;;;7.60;50.10;;;;;;5013659;28;20767;-62
2023/04/04 00:16:37;;;;;;;6.50;2.38;;;7.50;50.10;;;;;;5034134;28;20068;-62
2023/04/04 00:19:03;;;;;;;8.13;2.30;;;7.50;50.10;;;;;;5031599;28;20032;-62
2023/04/04 00:21:29;;;;;;;5.05;1.92;;;7.50;50.00;;;;;;5033767;28;20029;-62
2023/04/04 00:23:58;;;;;;;6.60;2.10;;;7.50;50.00;;;;;;5031918;28;20041;-62
2023/04/04 00:26:27;;;;;;;4.10;1.88;;;7.50;50.10;;;;;;5032136;28;20135;-62
2023/04/04 00:28:53;;;;;;;7.47;2.55;;;7.50;50.20;;;;;;5032537;28;20044;-62
2023/04/04 00:31:20;;;;;;;5.65;2.50;;;7.40;50.30;;;;;;5030836;28;20022;-62
2023/04/04 00:33:46;;;;;;;6.93;2.17;;;7.40;50.40;;;;;;5031818;28;20017;-62
2023/04/04 00:36:12;;;;;;;6.75;2.25;;;7.40;50.50;;;;;;5029120;28;20014;-62
2023/04/04 00:38:37;;;;;;;5.18;2.03;;;7.30;50.60;;;;;;5027925;28;20112;-62
2023/04/04 00:41:05;;;;;;;5.53;2.30;;;7.30;50.80;;;;;;5029624;28;20083;-62
2023/04/04 00:43:32;;;;;;;6.82;2.40;;;7.30;50.90;;;;;;5030901;28;20128;-62
2023/04/04 00:45:58;;;;;;;6.70;2.38;;;7.20;51.00;;;;;;5031562;28;20022;-62
2023/04/04 00:48:23;;;;;;;7.82;2.53;;;7.20;51.10;;;;;;5032557;28;20084;-62
2023/04/04 00:50:49;;;;;;;6.85;2.67;;;7.20;51.10;;;;;;5030528;28;20117;-62
2023/04/04 00:53:16;;;;;;;5.80;2.40;;;7.20;51.20;;;;;;5032235;28;20411;-62
2023/04/04 00:55:42;;;;;;;5.63;2.40;;;7.20;51.50;;;;;;5031246;28;20057;-62
2023/04/04 00:58:09;;;;;;;7.03;2.42;;;7.10;51.20;;;;;;5033034;28;20021;-62
2023/04/04 01:00:35;;;;;;;6.90;2.45;;;7.20;51.20;;;;;;5032276;28;20025;-62
2023/04/04 01:03:02;;;;;;;6.97;2.22;;;7.10;51.20;;;;;;5032402;28;20516;-62
2023/04/04 01:05:30;;;;;;;8.38;2.70;;;7.10;51.30;;;;;;5011502;28;20121;-62
2023/04/04 01:07:56;;;;;;;7.45;2.53;;;7.10;51.30;;;;;;5030103;28;20026;-62
2023/04/04 01:10:22;;;;;;;7.38;2.42;;;7.10;51.40;;;;;;5014022;28;20033;-62
2023/04/04 01:12:48;;;;;;;9.60;3.03;;;7.10;51.40;;;;;;5015147;28;20022;-62
2023/04/04 01:15:16;;;;;;;8.98;2.53;;;7.10;51.40;;;;;;5032080;28;20465;-62
2023/04/04 01:17:43;;;;;;;9.05;2.55;;;7.10;51.40;;;;;;5049298;28;20579;-62
2023/04/04 01:20:21;;;;;;;7.95;2.63;;;7.00;51.30;;;;;;5026376;28;20029;-61
2023/04/04 01:22:54;;;;;;;6.95;2.88;;;7.00;51.30;;;;;;5039483;28;20022;-62
2023/04/04 01:25:33;;;;;;;7.45;2.33;;;7.00;51.40;;;;;;5006571;28;20117;-62
2023/04/04 01:28:06;;;;;;;6.55;2.75;;;7.00;51.40;;;;;;5045230;28;20503;-62
2023/04/04 01:30:35;;;;;;;7.07;3.00;;;6.90;51.60;;;;;;5047764;28;20026;-62
2023/04/04 01:33:09;;;;;;;6.28;2.53;;;6.90;51.70;;;;;;5023944;28;20036;-62
2023/04/04 01:36:09;;;;;;;12.13;2.75;;;6.90;51.80;;;;;;5038525;28;20090;-62
2023/04/04 01:38:58;;;;;;;5.53;2.42;;;6.90;51.80;;;;;;5036083;28;20084;-62
2023/04/04 01:41:26;;;;;;;6.13;2.75;;;6.90;51.80;;;;;;5034745;28;20125;-62
2023/04/04 01:43:58;;;;;;;6.95;2.75;;;6.80;51.80;;;;;;5035882;28;20347;-62
2023/04/04 01:46:26;;;;;;;5.55;2.22;;;6.80;51.90;;;;;;5017689;28;20129;-62
2023/04/04 01:48:52;;;;;;;7.63;2.60;;;6.90;52.00;;;;;;5033728;28;20438;-62
2023/04/04 01:51:22;;;;;;;6.07;2.30;;;6.80;51.90;;;;;;5018769;28;20067;-62
2023/04/04 01:53:50;;;;;;;10.32;2.85;;;6.80;52.00;;;;;;5034372;28;20026;-62
2023/04/04 01:56:15;;;;;;;5.57;2.42;;;6.80;52.10;;;;;;5031941;28;20017;-62
2023/04/04 01:58:42;;;;;;;8.02;2.42;;;6.80;52.30;;;;;;5029943;28;20338;-62
2023/04/04 02:01:08;;;;;;;7.32;2.72;;;6.80;52.30;;;;;;5044597;28;20044;-62
2023/04/04 02:03:34;;;;;;;5.53;2.30;;;6.80;52.30;;;;;;5019918;28;20021;-61
2023/04/04 02:06:00;;;;;;;8.95;2.70;;;6.70;52.40;;;;;;5048679;28;20458;-61
2023/04/04 02:08:27;;;;;;;6.40;2.42;;;6.70;52.40;;;;;;5019195;28;20021;-62
2023/04/04 02:10:59;;;;;;;6.50;2.97;;;6.70;52.40;;;;;;5041910;28;20449;-62
2023/04/04 02:13:26;;;;;;;6.80;2.60;;;6.70;52.40;;;;;;5021677;28;20021;-62
2023/04/04 02:15:53;;;;;;;5.80;2.38;;;6.70;52.50;;;;;;5038613;28;20517;-62
2023/04/04 02:18:19;;;;;;;7.07;2.83;;;6.60;52.50;;;;;;5018920;28;20025;-62
2023/04/04 02:20:45;;;;;;;7.45;2.72;;;6.60;52.40;;;;;;5027643;28;20480;-62
2023/04/04 02:23:10;;;;;;;6.22;2.60;;;6.60;52.60;;;;;;5031600;28;20033;-62
2023/04/04 02:25:36;;;;;;;6.97;3.13;;;6.60;52.70;;;;;;5038539;28;20457;-62
2023/04/04 02:28:02;;;;;;;8.93;3.05;;;6.60;52.70;;;;;;5040047;28;20030;-62
2023/04/04 02:30:28;;;;;;;6.28;2.50;;;6.50;52.70;;;;;;5050904;28;20044;-62
2023/04/04 02:32:57;;;;;;;7.55;2.33;;;6.50;52.90;;;;;;5041182;28;20021;-62
2023/04/04 02:35:23;;;;;;;7.53;3.53;;;6.50;53.10;;;;;;5017106;28;20071;-62
2023/04/04 02:37:49;;;;;;;6.40;2.50;;;6.40;53.20;;;;;;5040776;28;20040;-62
2023/04/04 02:40:32;;;;;;;4.95;2.10;;;6.40;53.90;;;;;;5047664;28;20067;-62
2023/04/04 02:42:58;;;;;;;5.57;2.65;;;6.40;53.40;;;;;;5038064;28;20535;-61
2023/04/04 02:45:25;;;;;;;4.80;2.00;;;6.40;53.60;;;;;;5046483;28;20025;-61
2023/04/04 02:48:00;;;;;;;7.35;2.50;;;6.30;53.70;;;;;;5043879;28;20094;-62
2023/04/04 02:50:37;;;;;;;6.18;2.65;;;6.30;53.70;;;;;;5046000;28;20083;-62
2023/04/04 02:53:03;;;;;;;5.72;2.38;;;6.30;53.70;;;;;;5040307;28;20108;-61
2023/04/04 02:55:32;;;;;;;6.55;2.72;;;6.30;53.90;;;;;;5045976;28;20052;-62
2023/04/04 02:58:00;;;;;;;7.65;2.67;;;6.20;54.00;;;;;;5040729;28;20052;-62
2023/04/04 03:00:26;;;;;;;7.10;2.58;;;6.20;54.10;;;;;;5045159;28;20064;-62
2023/04/04 03:02:54;;;;;;;6.20;2.15;;;6.20;54.30;;;;;;5039453;28;20022;-62
2023/04/04 03:05:25;;;;;;;6.75;2.95;;;6.20;54.40;;;;;;5025542;28;20079;-62
2023/04/04 03:07:56;;;;;;;6.18;2.50;;;6.10;54.50;;;;;;5040845;28;20367;-61
2023/04/04 03:10:26;;;;;;;7.18;2.50;;;6.10;54.60;;;;;;5044665;28;20029;-62
2023/04/04 03:12:52;;;;;;;6.78;2.40;;;6.00;54.60;;;;;;5036527;28;20013;-62
2023/04/04 03:15:22;;;;;;;6.15;2.75;;;6.00;54.60;;;;;;5027441;28;20441;-62
2023/04/04 03:17:47;;;;;;;6.18;2.65;;;6.00;54.70;;;;;;5016774;28;20069;-61
2023/04/04 03:20:15;;;;;;;9.52;2.72;;;6.00;54.80;;;;;;5005115;28;20078;-62
2023/04/04 03:22:41;;;;;;;6.15;2.42;;;6.00;54.80;;;;;;5028337;28;20471;-62
2023/04/04 03:25:07;;;;;;;6.07;2.60;;;6.00;54.90;;;;;;5022433;28;20041;-61
2023/04/04 03:27:33;;;;;;;5.55;2.13;;;6.00;55.00;;;;;;5013156;28;20454;-62
2023/04/04 03:30:00;;;;;;;6.53;2.60;;;5.90;55.00;;;;;;5018595;28;20109;-61
2023/04/04 03:32:30;;;;;;;6.28;2.30;;;5.90;54.90;;;;;;5029413;28;20121;-62
2023/04/04 03:34:56;;;;;;;6.43;2.22;;;6.00;54.90;;;;;;5020100;28;20382;-61
2023/04/04 03:37:22;;;;;;;6.63;3.13;;;6.00;54.80;;;;;;5016971;28;20034;-61
2023/04/04 03:39:48;;;;;;;6.07;2.30;;;5.90;54.70;;;;;;5028676;28;20022;-62
2023/04/04 03:42:13;;;;;;;7.50;2.65;;;6.00;54.80;;;;;;5026602;28;20493;-62
2023/04/04 03:44:40;;;;;;;7.90;2.70;;;5.90;54.80;;;;;;5019199;28;20030;-62
2023/04/04 03:47:08;;;;;;;6.18;2.72;;;5.90;54.80;;;;;;5020903;28;20455;-62
2023/04/04 03:49:34;;;;;;;5.43;2.33;;;5.90;54.80;;;;;;4997832;28;20323;-61
2023/04/04 03:52:01;;;;;;;9.10;2.80;;;5.90;54.90;;;;;;5000362;28;20029;-62
2023/04/04 03:54:28;;;;;;;6.55;2.60;;;5.80;54.90;;;;;;5018924;28;20494;-61
2023/04/04 03:56:54;;;;;;;7.03;2.40;;;5.80;55.10;;;;;;5005495;28;20034;-62
2023/04/04 03:59:21;;;;;;;8.65;3.05;;;5.80;55.20;;;;;;5020021;28;20033;-62
2023/04/04 04:01:47;;;;;;;7.93;2.78;;;5.80;55.30;;;;;;5000640;28;20037;-61
2023/04/04 04:04:13;;;;;;;6.65;2.38;;;5.70;55.40;;;;;;5020510;28;20100;-62
2023/04/04 04:06:40;;;;;;;6.35;2.65;;;5.70;55.40;;;;;;5023062;28;20033;-62
2023/04/04 04:09:06;;;;;;;6.90;2.60;;;5.70;55.50;;;;;;4996218;28;20026;-62
2023/04/04 04:11:32;;;;;;;7.07;2.72;;;5.70;55.50;;;;;;5020956;28;20040;-62
2023/04/04 04:13:59;;;;;;;7.85;2.80;;;5.60;55.50;;;;;;5011768;28;20040;-61
2023/04/04 04:16:26;;;;;;;9.23;2.78;;;5.70;55.60;;;;;;5020986;28;20033;-62
2023/04/04 04:18:53;;;;;;;7.20;2.67;;;5.60;55.60;;;;;;5000282;28;20049;-62
2023/04/04 04:21:30;;;;;;;6.60;2.60;;;5.60;55.60;;;;;;5016907;28;20026;-62
2023/04/04 04:23:55;;;;;;;7.30;2.75;;;5.60;55.70;;;;;;5006105;28;20025;-61
2023/04/04 04:26:21;;;;;;;5.80;2.37;;;5.60;55.70;;;;;;5015830;28;20502;-62
2023/04/04 04:28:47;;;;;;;7.05;2.95;;;5.60;55.80;;;;;;5016553;28;20021;-62
2023/04/04 04:31:16;;;;;;;6.97;3.00;;;5.50;55.90;;;;;;5016103;28;20033;-61
2023/04/04 04:33:49;;;;;;;7.07;2.60;;;5.50;56.00;;;;;;5000098;28;20025;-62
2023/04/04 04:36:18;;;;;;;6.50;2.65;;;5.50;56.10;;;;;;5019848;28;20017;-61
2023/04/04 04:38:51;;;;;;;6.05;2.47;;;5.50;56.20;;;;;;5029559;28;20018;-62
2023/04/04 04:41:17;;;;;;;8.45;3.13;;;5.40;56.20;;;;;;5016471;28;20485;-61
2023/04/04 04:43:47;;;;;;;6.00;2.70;;;5.40;56.30;;;;;;5013670;28;20209;-61
2023/04/04 04:46:15;;;;;;;5.73;2.27;;;5.40;56.30;;;;;;5020979;28;20458;-62
2023/04/04 04:48:41;;;;;;;7.65;2.70;;;5.40;56.40;;;;;;5031291;28;20022;-61
2023/04/04 04:51:08;;;;;;;8.70;3.10;;;5.40;56.50;;;;;;5015051;28;20069;-62
2023/04/04 04:53:40;;;;;;;6.07;2.47;;;5.40;56.60;;;;;;5031045;28;20044;-62
2023/04/04 04:56:07;;;;;;;6.97;2.77;;;5.30;56.60;;;;;;5030688;28;20029;-62
2023/04/04 04:58:34;;;;;;;6.28;2.67;;;5.30;56.60;;;;;;5032764;28;20028;-62
2023/04/04 05:01:03;;;;;;;6.10;2.70;;;5.30;56.70;;;;;;5042940;28;20160;-62
2023/04/04 05:03:38;;;;;;;7.50;2.95;;;5.30;56.80;;;;;;5034067;28;20025;-61
2023/04/04 05:06:06;;;;;;;5.88;2.30;;;5.30;56.80;;;;;;5039848;28;20049;-61
2023/04/04 05:08:33;;;;;;;8.43;2.80;;;5.30;56.90;;;;;;5030924;28;20378;-61
2023/04/04 05:11:11;;;;;;;7.73;3.10;;;5.20;56.90;;;;;;5040841;28;20139;-62
2023/04/04 05:13:36;;;;;;;7.88;2.78;;;5.20;57.00;;;;;;5034733;28;20026;-61
2023/04/04 05:16:03;;;;;;;7.93;2.65;;;5.20;57.00;;;;;;5034395;28;20363;-62
2023/04/04 05:18:29;;;;;;;6.27;2.50;;;5.20;57.10;;;;;;5043170;28;20041;-61
2023/04/04 05:20:56;;;;;;;6.73;2.57;;;5.20;57.10;;;;;;5039035;28;20358;-61
2023/04/04 05:23:25;;;;;;;7.67;2.63;;;5.20;57.20;;;;;;5036688;28;20029;-61
2023/04/04 05:25:52;;;;;;;7.75;2.63;;;5.20;57.20;;;;;;5040273;28;20032;-61
2023/04/04 05:28:22;;;;;;;7.35;2.75;;;5.20;57.20;;;;;;5025529;28;20067;-61
2023/04/04 05:30:49;;;;;;;9.25;2.85;;;5.20;57.30;;;;;;5039370;28;20037;-62
2023/04/04 05:33:19;;;;;;;6.43;2.60;;;5.20;57.30;;;;;;5051636;28;20355;-61
2023/04/04 05:35:58;;;;;;;8.23;2.80;;;5.20;57.30;;;;;;5019429;28;20104;-62
2023/04/04 05:38:24;;;;;;;8.48;2.70;;;5.20;57.30;;;;;;5037348;28;20030;-62
2023/04/04 05:40:55;;;;;;;7.25;2.72;;;5.20;57.30;;;;;;5036883;28;20053;-62
2023/04/04 05:43:22;;;;;;;8.05;2.97;;;5.30;57.30;;;;;;5031274;28;20501;-62
2023/04/04 05:45:59;;;;;;;8.43;3.00;;;5.30;57.30;;;;;;5050070;28;20043;-62
2023/04/04 05:48:26;;;;;;;7.30;3.10;;;5.30;57.30;;;;;;5041131;28;20369;-61
2023/04/04 05:50:53;;;;;;;7.63;2.87;;;5.30;57.30;;;;;;5050206;28;20049;-61
2023/04/04 05:53:27;;;;;;;8.45;3.03;;;5.30;57.30;;;;;;5039939;28;20117;-62
2023/04/04 05:55:53;;;;;;;8.13;3.17;;;5.40;57.30;;;;;;5043666;28;20490;-62
2023/04/04 05:58:20;;;;;;;7.63;3.05;;;5.40;57.30;;;;;;5030802;28;20040;-62
2023/04/04 06:00:51;;;;;;;7.22;2.80;;;5.40;57.40;;;;;;5047230;28;20064;-61
2023/04/04 06:03:17;;;;;;;8.35;3.15;;;5.40;57.50;;;;;;5035010;28;20120;-62
2023/04/04 06:05:43;;;;;;;8.40;3.65;;;5.50;57.50;;;;;;5039606;28;20056;-62
2023/04/04 06:08:09;;;;;;;9.73;3.10;;;5.60;57.40;;;;;;5049404;28;20068;-62
2023/04/04 06:10:35;;;;;;;9.23;3.22;;;5.60;57.30;;;;;;5056482;28;20029;-62
2023/04/04 06:13:01;;;;;;;6.57;2.75;;;5.70;57.10;;;;;;5019721;28;20366;-62
2023/04/04 06:15:28;;;;;;;7.27;3.40;;;5.90;56.80;;;;;;5034579;28;20026;-62
2023/04/04 06:17:55;;;;;;;8.38;3.53;;;6.10;56.50;;;;;;5033755;28;20026;-62
2023/04/04 06:20:22;;;;;;;8.90;3.20;;;6.20;56.30;;;;;;5054408;28;20032;-62
2023/04/04 06:22:49;;;;;;;7.47;3.45;;;6.40;56.00;;;;;;5039138;28;20036;-62
2023/04/04 06:25:16;;;;;;;8.00;2.80;;;6.50;55.60;;;;;;5053183;28;20058;-62
2023/04/04 06:27:42;;;;;;;7.45;3.25;;;6.60;55.30;;;;;;5050550;28;20365;-62
2023/04/04 06:30:09;;;;;;;9.05;3.40;;;6.90;55.00;;;;;;5044008;28;20025;-62
2023/04/04 06:32:35;;;;;;;7.78;3.10;;;7.20;54.50;;;;;;5049645;28;20025;-62
2023/04/04 06:35:03;;;;;;;12.10;3.45;;;7.60;53.90;;;;;;5033284;28;20348;-62
2023/04/04 06:37:54;;;;;;;9.50;3.10;;;8.00;53.30;;;;;;5049986;28;20037;-63
2023/04/04 06:40:21;;;;;;;10.40;3.22;;;8.60;52.50;;;;;;5037606;28;20031;-64
2023/04/04 06:42:51;;;;;;;8.95;3.15;;;9.00;51.80;;;;;;5045722;28;20026;-65
2023/04/04 06:45:19;;;;;;;7.35;2.70;;;9.40;51.10;;;;;;5029232;28;20063;-64
2023/04/04 06:47:45;;;;;;;6.97;2.67;;;9.70;50.50;;;;;;5037212;28;20522;-64
2023/04/04 06:50:11;;;;;;;6.97;2.70;;;10.00;49.80;;;;;;5034153;28;20489;-63
2023/04/04 06:52:37;;;;;;;9.35;2.90;;;10.20;49.30;;;;;;5039881;28;20029;-63
2023/04/04 06:55:04;;;;;;;8.68;3.00;;;10.30;49.00;;;;;;5045954;28;20029;-63
2023/04/04 06:57:30;;;;;;;8.43;2.55;;;10.30;48.70;;;;;;5046383;28;20031;-63
2023/04/04 06:59:56;;;;;;;5.80;2.28;;;10.20;48.70;;;;;;5046453;28;20030;-63
2023/04/04 07:02:22;;;;;;;7.40;2.75;;;10.20;48.70;;;;;;5040830;28;20350;-64
2023/04/04 07:04:48;;;;;;;5.75;2.30;;;10.10;48.70;;;;;;5018684;28;20059;-64
2023/04/04 07:07:13;;;;;;;6.32;2.85;;;9.90;48.80;;;;;;5030455;28;20029;-64
2023/04/04 07:09:40;;;;;;;5.60;2.50;;;9.80;49.00;;;;;;5034093;28;20030;-65
2023/04/04 07:12:05;;;;;;;8.98;2.80;;;9.70;48.90;;;;;;5031871;28;20045;-64
2023/04/04 07:14:31;;;;;;;7.60;2.70;;;9.70;48.80;;;;;;5034795;28;20040;-64
2023/04/04 07:16:57;;;;;;;5.88;2.70;;;9.70;48.80;;;;;;5033619;28;20036;-64
2023/04/04 07:19:27;;;;;;;6.95;2.95;;;9.80;48.60;;;;;;5035058;28;20030;-65
2023/04/04 07:21:56;;;;;;;6.95;2.75;;;9.80;48.40;;;;;;5033616;28;20116;-64
2023/04/04 07:24:22;;;;;;;6.25;2.30;;;9.90;48.20;;;;;;5033433;28;20035;-64
2023/04/04 07:26:48;;;;;;;7.30;2.47;;;10.00;48.00;;;;;;5033598;28;20108;-64
2023/04/04 07:29:13;;;;;;;6.95;2.42;;;10.10;47.90;;;;;;5030635;28;20033;-64
2023/04/04 07:31:39;;;;;;;6.70;2.58;;;10.30;47.60;;;;;;5034552;28;20024;-62
2023/04/04 07:34:06;;;;;;;7.47;2.65;;;10.40;47.30;;;;;;5033125;28;20335;-64
2023/04/04 07:36:32;;;;;;;5.50;2.30;;;10.50;47.10;;;;;;5031494;28;20037;-64
2023/04/04 07:38:57;;;;;;;6.15;2.53;;;10.60;46.80;;;;;;5033167;28;20021;-64
2023/04/04 07:41:24;;;;;;;6.85;3.15;;;10.70;46.70;;;;;;5030036;28;20462;-64
2023/04/04 07:43:50;;;;;;;5.88;2.42;;;10.80;46.60;;;;;;5034324;28;20455;-64
2023/04/04 07:46:16;;;;;;;6.28;2.47;;;10.90;46.50;;;;;;5045515;28;20027;-64
2023/04/04 07:48:42;;;;;;;6.20;2.60;;;11.00;46.50;;;;;;5047367;28;20029;-64
2023/04/04 07:51:08;;;;;;;7.68;2.78;;;11.20;46.30;;;;;;5043243;28;20048;-64
2023/04/04 07:53:34;;;;;;;6.10;2.42;;;11.40;46.10;;;;;;5040508;28;20438;-64
2023/04/04 07:56:05;;;;;;;5.90;2.47;;;11.50;46.00;;;;;;5029719;28;20048;-64
2023/04/04 07:58:34;;;;;;;6.20;2.27;;;11.70;45.70;;;;;;5039149;28;20025;-63
2023/04/04 08:01:01;;;;;;;8.40;2.58;;;11.90;45.40;;;;;;5036288;28;20120;-63
2023/04/04 08:03:27;;;;;;;5.65;2.40;;;12.10;45.20;;;;;;5040713;28;20044;-63
2023/04/04 08:05:52;;;;;;;7.30;2.47;;;12.30;45.00;;;;;;5032668;28;20022;-63
2023/04/04 08:08:18;;;;;;;5.03;2.13;;;12.50;44.60;;;;;;5038360;28;20454;-64
2023/04/04 08:10:44;;;;;;;6.43;2.17;;;12.60;44.30;;;;;;5042439;28;20051;-65
2023/04/04 08:13:11;;;;;;;5.60;2.10;;;12.70;43.90;;;;;;5033065;28;20479;-65
2023/04/04 08:15:37;;;;;;;4.90;1.80;;;12.90;43.70;;;;;;5034088;28;20107;-65
2023/04/04 08:18:03;;;;;;;6.28;2.05;;;13.00;43.50;;;;;;5043377;28;20025;-65
2023/04/04 08:20:29;;;;;;;5.63;2.20;;;13.10;43.30;;;;;;5032174;28;20030;-65
2023/04/04 08:22:55;;;;;;;5.32;2.03;;;13.30;43.00;;;;;;5031407;28;20061;-65
2023/04/04 08:25:20;;;;;;;5.60;2.00;;;13.40;42.70;;;;;;5037277;28;20435;-65
2023/04/04 08:27:46;;;;;;;6.32;2.25;;;13.50;42.50;;;;;;5033967;28;20032;-65
2023/04/04 08:30:13;;;;;;;7.70;2.25;;;13.60;42.20;;;;;;5038633;28;20124;-65
2023/04/04 08:32:40;;;;;;;11.68;2.45;;;13.60;41.90;;;;;;5036658;28;20090;-65
2023/04/04 08:35:07;;;;;;;5.22;2.13;;;13.70;41.70;;;;;;5039149;28;20036;-65
2023/04/04 08:37:34;;;;;;;5.45;2.25;;;13.80;41.50;;;;;;5048297;28;20446;-65
2023/04/04 08:40:01;;;;;;;5.80;2.40;;;13.80;41.30;;;;;;5038646;28;20021;-65
2023/04/04 08:42:29;;;;;;;5.20;2.20;;;13.90;41.10;;;;;;5037786;28;20443;-65
2023/04/04 08:44:58;;;;;;;7.60;2.60;;;14.00;40.80;;;;;;5050124;28;20028;-65
2023/04/04 08:47:25;;;;;;;6.30;2.22;;;14.10;40.50;;;;;;5047712;28;20060;-65
2023/04/04 08:49:52;;;;;;;4.97;2.10;;;14.10;40.40;;;;;;5051777;28;20040;-65
2023/04/04 08:52:21;;;;;;;5.80;2.17;;;14.20;40.10;;;;;;5019678;28;20021;-65
2023/04/04 08:54:50;;;;;;;5.93;2.28;;;14.20;40.00;;;;;;5056360;28;20051;-65
2023/04/04 08:57:16;;;;;;;9.40;3.13;;;14.20;39.80;;;;;;5038063;28;20040;-65
2023/04/04 08:59:42;;;;;;;5.93;2.30;;;14.20;39.70;;;;;;5058990;28;20488;-65
2023/04/04 09:02:08;;;;;;;14.55;3.97;;;14.20;39.50;;;;;;5044481;28;20033;-65
2023/04/04 09:04:34;;;;;;;7.22;2.50;;;14.30;39.40;;;;;;5048820;28;20052;-65
2023/04/04 09:07:03;;;;;;;6.30;2.13;;;14.30;39.10;;;;;;5047237;28;20086;-65
2023/04/04 09:09:34;;;;;;;4.38;1.90;;;14.40;39.00;;;;;;5039899;28;20550;-64
2023/04/04 09:12:00;;;;;;;7.82;2.35;;;14.50;38.90;;;;;;5042432;28;20071;-64
2023/04/04 09:14:28;;;;;;;5.45;2.22;;;14.70;38.80;;;;;;5052582;28;20307;-65
2023/04/04 09:16:54;;;;;;;6.75;2.25;;;14.80;38.60;;;;;;5053168;28;20032;-65
2023/04/04 09:19:22;;;;;;;5.18;1.88;;;14.80;38.30;;;;;;5049987;28;20421;-65
2023/04/04 09:21:50;;;;;;;5.78;2.20;;;14.90;38.30;;;;;;5042548;28;20036;-65
2023/04/04 09:24:16;;;;;;;5.93;2.20;;;14.90;38.10;;;;;;5046590;28;20025;-65
2023/04/04 09:26:52;;;;;;;6.72;2.35;;;14.90;38.10;;;;;;5046653;28;20374;-65
2023/04/04 09:29:19;;;;;;;5.97;1.85;;;14.90;37.70;;;;;;5046271;28;20029;-65
2023/04/04 09:31:48;;;;;;;6.82;1.98;;;14.80;37.80;;;;;;5046747;28;20430;-65
2023/04/04 09:34:16;;;;;;;6.55;2.38;;;14.90;38.50;;;;;;5039136;28;20021;-65
2023/04/04 09:36:43;;;;;;;7.35;2.42;;;15.00;37.90;;;;;;5022894;28;20029;-64
2023/04/04 09:39:09;;;;;;;11.38;2.80;;;15.00;37.80;;;;;;5042713;28;20060;-64
2023/04/04 09:41:38;;;;;;;6.65;2.30;;;15.10;37.60;;;;;;5043309;28;20140;-65
2023/04/04 09:44:06;;;;;;;8.45;2.03;;;15.10;37.50;;;;;;5042115;28;20102;-64
2023/04/04 09:46:34;;;;;;;5.32;2.10;;;15.20;37.40;;;;;;5031799;28;20059;-65
2023/04/04 09:49:00;;;;;;;5.80;2.13;;;15.20;37.30;;;;;;5041331;28;20023;-65
2023/04/04 09:51:37;;;;;;;7.82;2.30;;;15.20;37.10;;;;;;5054512;28;20044;-65
2023/04/04 09:54:05;;;;;;;7.55;2.58;;;15.30;36.90;;;;;;5035447;28;20029;-65
2023/04/04 09:56:37;;;;;;;6.18;1.98;;;15.40;37.00;;;;;;5028832;28;20104;-63
2023/04/04 09:59:06;;;;;;;6.75;2.25;;;15.60;36.90;;;;;;5036887;28;20025;-64
2023/04/04 10:01:32;;;;;;;13.50;3.47;;;15.60;37.40;;;;;;5041739;28;20112;-65
2023/04/04 10:03:58;;;;;;;8.88;2.15;;;15.60;36.70;;;;;;5031598;28;20036;-64
2023/04/04 10:06:25;;;;;;;8.50;2.90;;;15.60;36.60;;;;;;5045774;28;20030;-65
2023/04/04 10:08:51;;;;;;;5.90;2.10;;;15.60;36.70;;;;;;5033265;28;20069;-65
2023/04/04 10:11:34;;;;;;;5.95;2.22;;;15.60;36.50;;;;;;5050652;28;20365;-65
2023/04/04 10:14:02;;;;;;;7.85;2.28;;;15.60;36.40;;;;;;5038641;28;20087;-64
2023/04/04 10:16:33;;;;;;;10.95;2.85;;;15.60;36.60;;;;;;5041154;28;20030;-64
2023/04/04 10:19:01;;;;;;;7.90;2.40;;;15.60;36.40;;;;;;5049605;28;20027;-64
2023/04/04 10:21:27;;;;;;;12.52;3.22;;;15.60;36.40;;;;;;5045893;28;20029;-65
2023/04/04 10:23:54;;;;;;;7.93;2.47;;;15.50;36.40;;;;;;5039053;28;20373;-65
2023/04/04 10:26:21;;;;;;;7.50;2.47;;;15.40;36.30;;;;;;5042125;28;20430;-65
2023/04/04 10:28:47;;;;;;;5.45;1.80;;;15.40;36.50;;;;;;5054999;28;20334;-65
2023/04/04 10:31:24;;;;;;;6.30;2.20;;;15.40;36.50;;;;;;5051781;28;20025;-65
2023/04/04 10:34:06;;;;;;;4.28;2.00;;;15.50;36.30;;;;;;5034132;28;20040;-64
2023/04/04 10:36:51;;;;;;;5.63;2.20;;;15.50;36.40;;;;;;5029452;28;20114;-65
2023/04/04 10:39:35;;;;;;;6.40;2.20;;;15.50;37.00;;;;;;5029014;28;20029;-64
2023/04/04 10:42:04;;;;;;;4.78;1.95;;;15.50;36.40;;;;;;5035482;28;20034;-65
2023/04/04 10:44:39;;;;;;;5.80;1.90;;;15.40;36.50;;;;;;5040843;28;20026;-64
2023/04/04 10:47:24;;;;;;;6.00;2.05;;;15.40;36.40;;;;;;5049112;28;20067;-65
2023/04/04 10:49:51;;;;;;;5.40;2.10;;;15.40;36.60;;;;;;5027218;28;20054;-65
2023/04/04 10:52:26;;;;;;;6.90;2.30;;;15.40;36.80;;;;;;5035024;28;20018;-65
2023/04/04 10:55:00;;;;;;;6.03;2.45;;;15.40;36.80;;;;;;5028064;28;20083;-64
2023/04/04 10:57:29;;;;;;;5.82;2.40;;;15.40;37.00;;;;;;5038160;28;20346;-64
2023/04/04 11:00:04;;;;;;;5.60;1.98;;;15.40;36.90;;;;;;5040810;28;20450;-64
2023/04/04 11:02:46;;;;;;;6.60;2.20;;;15.40;37.50;;;;;;5032614;28;20455;-64
2023/04/04 11:05:19;;;;;;;6.28;2.17;;;15.40;36.90;;;;;;5041553;28;20067;-65
2023/04/04 11:07:46;;;;;;;7.03;2.50;;;15.50;37.00;;;;;;5053115;28;20064;-65
2023/04/04 11:10:15;;;;;;;5.20;2.22;;;15.50;36.90;;;;;;5030467;28;20033;-64
2023/04/04 11:12:44;;;;;;;5.30;2.28;;;15.50;36.90;;;;;;5027708;28;20063;-66
2023/04/04 11:15:13;;;;;;;4.88;1.95;;;15.40;36.90;;;;;;5029134;28;20048;-65
2023/04/04 11:17:47;;;;;;;8.07;2.40;;;15.40;37.00;;;;;;5032233;28;20034;-65
2023/04/04 11:20:22;;;;;;;6.47;2.65;;;15.30;36.80;;;;;;5052123;28;20090;-65
2023/04/04 11:23:07;;;;;;;7.22;2.50;;;15.30;36.70;;;;;;5038182;28;20120;-65
2023/04/04 11:25:36;;;;;;;5.55;2.35;;;15.20;36.90;;;;;;5032550;28;20029;-65
2023/04/04 11:28:13;;;;;;;6.57;2.28;;;15.10;37.00;;;;;;5044739;28;20037;-65
2023/04/04 11:30:47;;;;;;;7.70;2.40;;;15.00;36.90;;;;;;5039652;28;20466;-65
2023/04/04 11:33:25;;;;;;;5.80;2.25;;;15.00;37.10;;;;;;5038884;28;20036;-65
2023/04/04 11:35:52;;;;;;;6.38;2.20;;;14.90;37.00;;;;;;5038115;28;20025;-66
2023/04/04 11:38:19;;;;;;;6.70;2.50;;;14.90;37.70;;;;;;5041755;28;20469;-66
2023/04/04 11:40:53;;;;;;;5.90;1.90;;;14.90;37.20;;;;;;5037505;28;20464;-64
2023/04/04 11:43:19;;;;;;;6.82;2.63;;;15.00;37.10;;;;;;5041916;28;20037;-66
2023/04/04 11:45:46;;;;;;;6.35;2.55;;;15.00;37.10;;;;;;5038540;28;20029;-65
2023/04/04 11:48:14;;;;;;;5.80;2.45;;;15.10;37.10;;;;;;5053656;28;20446;-65
2023/04/04 11:50:48;;;;;;;13.93;3.75;;;15.10;37.00;;;;;;5053471;28;20037;-65
2023/04/04 11:53:14;;;;;;;12.40;3.03;;;15.20;37.00;;;;;;5054659;28;20468;-64
2023/04/04 11:55:42;;;;;;;7.63;2.28;;;15.20;37.10;;;;;;5025694;28;20099;-64
2023/04/04 11:58:12;;;;;;;7.38;2.58;;;15.20;37.10;;;;;;5043351;28;20021;-65
2023/04/04 12:00:38;;;;;;;5.35;2.20;;;15.20;37.00;;;;;;5054323;28;20040;-64
2023/04/04 12:03:07;;;;;;;5.93;2.08;;;15.20;37.10;;;;;;5054255;28;20175;-65
2023/04/04 12:05:33;;;;;;;8.52;2.80;;;15.20;37.00;;;;;;5042087;28;20469;-65
2023/04/04 12:08:01;;;;;;;5.00;2.15;;;15.20;36.90;;;;;;5048769;28;20025;-65
2023/04/04 12:10:30;;;;;;;6.20;2.17;;;15.10;36.90;;;;;;5053469;28;20033;-64
2023/04/04 12:12:57;;;;;;;6.50;2.50;;;15.00;37.00;;;;;;5053336;28;20314;-64
2023/04/04 12:15:26;;;;;;;6.03;2.22;;;15.00;37.00;;;;;;5047008;28;20052;-64
2023/04/04 12:17:51;;;;;;;9.13;2.28;;;14.90;36.90;;;;;;5046761;28;20059;-65
2023/04/04 12:20:21;;;;;;;6.70;2.63;;;14.80;37.10;;;;;;5053417;28;20064;-64
2023/04/04 12:22:51;;;;;;;5.57;2.38;;;14.70;37.10;;;;;;5053016;28;20041;-64
2023/04/04 12:25:22;;;;;;;6.35;2.25;;;14.70;37.00;;;;;;5043362;28;20333;-64
2023/04/04 12:27:50;;;;;;;4.70;2.03;;;14.50;36.90;;;;;;5054224;28;20107;-64
2023/04/04 12:30:17;;;;;;;10.38;2.70;;;14.50;37.10;;;;;;5054195;28;20033;-64
2023/04/04 12:32:48;;;;;;;8.07;2.53;;;14.40;37.10;;;;;;5054139;28;20405;-64
2023/04/04 12:35:14;;;;;;;7.55;2.17;;;14.40;37.10;;;;;;5047256;28;20041;-65
2023/04/04 12:38:02;;;;;;;7.63;2.45;;;14.40;37.10;;;;;;5053182;28;20469;-64
2023/04/04 12:40:31;;;;;;;6.13;2.03;;;14.40;37.00;;;;;;5037625;28;20121;-65
2023/04/04 12:42:58;;;;;;;5.85;2.13;;;14.40;37.20;;;;;;5053912;28;20408;-64
2023/04/04 12:45:25;;;;;;;7.43;2.17;;;14.30;37.20;;;;;;5045681;28;20044;-64
2023/04/04 12:47:55;;;;;;;6.25;2.42;;;14.30;37.10;;;;;;5054140;28;20488;-64
2023/04/04 12:50:27;;;;;;;4.68;2.00;;;14.20;36.90;;;;;;5053552;28;20564;-65
2023/04/04 12:52:53;;;;;;;8.27;2.65;;;14.10;37.10;;;;;;5053966;28;20510;-64
2023/04/04 12:55:24;;;;;;;8.05;2.60;;;14.10;37.20;;;;;;5047810;28;20330;-64
2023/04/04 12:57:50;;;;;;;5.85;2.35;;;14.00;37.20;;;;;;5052658;28;20035;-65
2023/04/04 13:00:18;;;;;;;7.38;2.60;;;14.10;37.40;;;;;;5053827;28;20037;-65